Pagina principale
METAR-TAF:

METAR-TAF

Aeroporti :

Aeroporto di Pantelleria

Pantelleria, Italia

latitudine: 36-49N, longitudine: 011-58E, altezza: 191 m

Osservazione

Il bollettino è stato emesso 55 minuti fa, alle 10:50 UTC
Vento 6 kt da ovest, variando fra ovest/sud-ovest e nord/nord-ovest
Temperature 19°C
Umidità 94%
Pressione 1016 hPa
Visibilità 10 km o più
Nubi sparse ad un'altezza di 1200 ft

METAR: LICG 261050Z 28006KT 250V340 9999 SCT012 19/18 Q1016

Ora: 13:45 (11:45 UTC)

Previsione

Il bollettino è stato emesso 45 minuti fa, alle 11:00 UTC
Previsione valida dal 26 alle 12 UTC al 26 alle 21 UTC
Vento 14 kt da nord/nord-ovest
Visibilità 10 km o più
Nubi sparse ad un'altezza di 2000 ft
Temporaneamente
dal 26 alle 12 UTC al 26 alle 18 UTC
Visibilità: 4000 m
temporale, pioggia

TAF: LICG 261100Z 2612/2621 34014KT 9999 SCT020 TEMPO 2612/2618 4000 TSRA

Osservazioni e previsioni meteorologiche di più di 4000 aeroporti (messaggi METAR e TAF).

Le stazioni disponibili sono rappresentate dai dischi gialli e rossi sulla carta.

Puntare il mouse per vedere il nome della stazione.

Clicca sopra per visualizzare le osservazioni e previsioni meteorologiche.

Per cambiare la mappa : fare clic sui pulsanti verdi con una croce nera per ingrandire, il pulsante verde con un trattino per diminuire, o sulla freccia verde per le mappe adiacenti.


METAR-TAF: